createdAt,value
2023-05-18T00:00:48.562Z,56.21
2023-05-18T00:01:48.647Z,56.84
2023-05-18T00:02:48.835Z,57.18
2023-05-18T00:03:48.895Z,57.74
2023-05-18T00:04:48.880Z,59.23
2023-05-18T00:05:48.894Z,60.07
2023-05-18T00:06:48.943Z,60.51
2023-05-18T00:07:49.010Z,60.63
2023-05-18T00:08:49.045Z,63.28
2023-05-18T00:09:49.159Z,60.86
2023-05-18T00:10:49.177Z,60.15
2023-05-18T00:11:49.254Z,59.33
2023-05-18T00:12:49.315Z,60.02
2023-05-18T00:13:49.391Z,60.24
2023-05-18T00:14:49.438Z,61.17
2023-05-18T00:15:49.525Z,61.24
2023-05-18T00:16:49.535Z,60.12
2023-05-18T00:17:49.666Z,60.09
2023-05-18T00:18:49.727Z,61.77
2023-05-18T00:19:49.726Z,61.25
2023-05-18T00:20:49.811Z,61.47
2023-05-18T00:21:49.844Z,62.53
2023-05-18T00:22:49.951Z,61.73
2023-05-18T00:23:49.982Z,61.53
2023-05-18T00:24:50.068Z,60.71
2023-05-18T00:25:50.114Z,62.64
2023-05-18T00:26:50.188Z,61.27
2023-05-18T00:27:50.248Z,61.28
2023-05-18T00:28:50.310Z,61.29
2023-05-18T00:29:50.358Z,62.43
2023-05-18T00:30:50.431Z,59.69
2023-05-18T00:31:50.513Z,60.67
2023-05-18T00:32:50.599Z,60.05
2023-05-18T00:33:50.610Z,58.84
2023-05-18T00:34:50.679Z,59.64
2023-05-18T00:35:50.819Z,60.78
2023-05-18T00:36:50.809Z,61.38
2023-05-18T00:37:50.876Z,62.72
2023-05-18T00:38:50.937Z,62.64
2023-05-18T00:39:51.023Z,61.12
2023-05-18T00:40:51.052Z,62.24
2023-05-18T00:41:51.129Z,62.27
2023-05-18T00:42:51.194Z,62.01
2023-05-18T00:43:51.260Z,61.14
2023-05-18T00:44:51.319Z,62.77
2023-05-18T00:45:51.425Z,60.79
2023-05-18T00:46:51.443Z,61.81
2023-05-18T00:47:51.523Z,60.94
2023-05-18T00:48:51.567Z,60.91
2023-05-18T00:49:51.636Z,60.64
2023-05-18T00:50:51.705Z,61.15
2023-05-18T00:51:51.750Z,60.36
2023-05-18T00:52:51.831Z,60.73
2023-05-18T00:53:51.910Z,59.77
2023-05-18T00:54:51.951Z,60.43
2023-05-18T00:55:52.048Z,61.57
2023-05-18T00:56:52.110Z,61.88
2023-05-18T00:57:52.159Z,62.31
2023-05-18T00:58:52.218Z,62.58
2023-05-18T00:59:52.273Z,62.25
2023-05-18T01:00:52.394Z,59.73
2023-05-18T01:01:52.393Z,61.44
2023-05-18T01:02:52.691Z,60.31
2023-05-18T01:03:52.548Z,60.45
2023-05-18T01:04:52.582Z,58.47
2023-05-18T01:05:52.638Z,59.21
2023-05-18T01:06:52.700Z,58.53
2023-05-18T01:07:52.806Z,58.19
2023-05-18T01:08:52.824Z,59.42
2023-05-18T01:09:52.896Z,56.62
2023-05-18T01:10:52.970Z,57.66
2023-05-18T01:11:53.074Z,58.78
2023-05-18T01:12:53.087Z,58.04
2023-05-18T01:13:53.138Z,57.84
2023-05-18T01:14:53.207Z,57.11
2023-05-18T01:15:53.256Z,58.20
2023-05-18T01:16:53.380Z,58.83
2023-05-18T01:17:53.409Z,61.41
2023-05-18T01:18:53.510Z,61.37
2023-05-18T01:19:53.508Z,61.04
2023-05-18T01:20:53.582Z,59.54
2023-05-18T01:21:53.643Z,62.02
2023-05-18T01:22:53.706Z,60.83
2023-05-18T01:23:53.778Z,59.47
2023-05-18T01:24:53.830Z,60.36
2023-05-18T01:25:53.883Z,59.47
2023-05-18T01:26:53.951Z,58.14
2023-05-18T01:27:54.041Z,58.77
2023-05-18T01:28:54.091Z,58.79
2023-05-18T01:29:54.119Z,60.49
2023-05-18T01:30:54.258Z,58.62
2023-05-18T01:31:54.224Z,58.21
2023-05-18T01:32:54.355Z,57.81
2023-05-18T01:33:54.383Z,60.06
2023-05-18T01:34:54.472Z,61.84
2023-05-18T01:35:54.518Z,60.57
2023-05-18T01:36:54.544Z,57.59
2023-05-18T01:37:54.655Z,58.19
2023-05-18T01:38:54.721Z,57.90
2023-05-18T01:39:54.777Z,59.44
2023-05-18T01:40:54.820Z,60.23
2023-05-18T01:41:54.901Z,60.76
2023-05-18T01:42:54.963Z,60.84
2023-05-18T01:43:54.978Z,61.10
2023-05-18T01:44:55.083Z,60.44
2023-05-18T01:45:55.132Z,60.86
2023-05-18T01:46:55.239Z,60.58
2023-05-18T01:47:55.311Z,62.09
2023-05-18T01:48:55.289Z,59.09
2023-05-18T01:49:55.371Z,60.20
2023-05-18T01:50:55.444Z,59.79
2023-05-18T01:51:55.473Z,60.00
2023-05-18T01:52:55.556Z,58.82
2023-05-18T01:53:55.635Z,61.35
2023-05-18T01:54:55.672Z,60.09
2023-05-18T01:55:55.746Z,60.64
2023-05-18T01:56:55.818Z,62.63
2023-05-18T01:57:55.878Z,64.69
2023-05-18T01:58:55.915Z,62.59
2023-05-18T01:59:56.047Z,63.92
2023-05-18T02:00:56.034Z,65.09
2023-05-18T02:01:59.041Z,65.09
2023-05-18T02:02:56.145Z,67.41
2023-05-18T02:03:56.153Z,67.25
2023-05-18T02:04:56.058Z,67.62
2023-05-18T02:05:56.071Z,66.39
2023-05-18T02:06:56.103Z,68.92
2023-05-18T02:07:56.072Z,66.91
2023-05-18T02:08:56.065Z,67.20
2023-05-18T02:09:56.043Z,69.13
2023-05-18T02:10:56.037Z,68.83
2023-05-18T02:11:56.019Z,67.16
2023-05-18T02:12:56.045Z,69.60
2023-05-18T02:13:56.012Z,70.43
2023-05-18T02:14:56.007Z,67.14
2023-05-18T02:15:56.035Z,68.66
2023-05-18T02:16:56.014Z,67.65
2023-05-18T02:17:56.037Z,70.00
2023-05-18T02:18:56.053Z,70.15
2023-05-18T02:19:55.994Z,69.15
2023-05-18T02:20:55.962Z,68.96
2023-05-18T02:21:55.968Z,71.45
2023-05-18T02:22:55.934Z,69.21
2023-05-18T02:23:55.957Z,69.79
2023-05-18T02:24:55.926Z,69.39
2023-05-18T02:25:56.276Z,70.44
2023-05-18T02:26:55.933Z,68.66
2023-05-18T02:27:55.987Z,70.54
2023-05-18T02:28:56.098Z,70.51
2023-05-18T02:29:56.136Z,70.76
2023-05-18T02:30:56.195Z,70.66
2023-05-18T02:31:56.323Z,70.47
2023-05-18T02:32:56.361Z,71.20
2023-05-18T02:33:56.376Z,71.37
2023-05-18T02:34:56.450Z,69.34
2023-05-18T02:35:56.491Z,71.61
2023-05-18T02:36:56.548Z,72.89
2023-05-18T02:37:56.620Z,71.82
2023-05-18T02:38:56.666Z,71.67
2023-05-18T02:39:56.760Z,71.69
2023-05-18T02:40:56.833Z,72.22
2023-05-18T02:41:56.906Z,73.49
2023-05-18T02:42:56.948Z,73.96
2023-05-18T02:43:56.994Z,74.80
2023-05-18T02:44:57.087Z,76.18
2023-05-18T02:45:57.146Z,76.55
2023-05-18T02:46:57.173Z,77.50
2023-05-18T02:47:57.295Z,78.37
2023-05-18T02:48:57.322Z,79.33
2023-05-18T02:49:57.400Z,81.81
2023-05-18T02:50:57.435Z,82.07
2023-05-18T02:51:57.507Z,85.42
2023-05-18T02:52:57.585Z,85.42
2023-05-18T02:53:57.604Z,88.05
2023-05-18T02:54:57.710Z,87.16
2023-05-18T02:55:57.788Z,88.58
2023-05-18T02:56:57.822Z,91.36
2023-05-18T02:57:57.979Z,91.22
2023-05-18T02:58:58.304Z,92.33
2023-05-18T02:59:57.998Z,95.51
2023-05-18T03:00:58.053Z,96.57
2023-05-18T03:01:58.109Z,98.38
2023-05-18T03:02:58.253Z,98.97
2023-05-18T03:03:58.195Z,100.54
2023-05-18T03:04:58.218Z,102.99
2023-05-18T03:05:58.282Z,104.64
2023-05-18T03:06:58.364Z,105.81
2023-05-18T03:07:58.352Z,107.32
2023-05-18T03:08:58.403Z,109.08
2023-05-18T03:09:58.479Z,115.19
2023-05-18T03:10:58.507Z,117.22
2023-05-18T03:11:58.570Z,116.43
2023-05-18T03:12:58.565Z,118.59
2023-05-18T03:13:58.633Z,118.86
2023-05-18T03:14:58.668Z,122.59
2023-05-18T03:15:58.721Z,123.40
2023-05-18T03:16:58.796Z,124.40
2023-05-18T03:17:58.765Z,126.20
2023-05-18T03:18:59.132Z,124.31
2023-05-18T03:19:58.835Z,122.49
2023-05-18T03:20:58.876Z,122.63
2023-05-18T03:21:58.883Z,124.26
2023-05-18T03:22:58.926Z,124.57
2023-05-18T03:23:58.962Z,125.56
2023-05-18T03:24:58.952Z,124.78
2023-05-18T03:25:58.998Z,127.02
2023-05-18T03:26:59.028Z,126.42
2023-05-18T03:27:59.056Z,125.94
2023-05-18T03:28:59.099Z,124.34
2023-05-18T03:29:59.102Z,121.79
2023-05-18T03:30:59.188Z,123.43
2023-05-18T03:31:59.190Z,122.50
2023-05-18T03:32:59.160Z,122.21
2023-05-18T03:33:59.162Z,121.70
2023-05-18T03:34:59.177Z,121.54
2023-05-18T03:35:59.168Z,120.98
2023-05-18T03:36:59.205Z,121.21
2023-05-18T03:37:59.189Z,121.74
2023-05-18T03:38:59.229Z,122.44
2023-05-18T03:39:59.239Z,123.10
2023-05-18T03:40:59.245Z,121.52
2023-05-18T03:41:59.271Z,120.84
2023-05-18T03:42:59.261Z,121.97
2023-05-18T03:43:59.261Z,123.78
2023-05-18T03:44:59.281Z,122.99
2023-05-18T03:45:59.401Z,121.93
2023-05-18T03:46:59.306Z,121.17
2023-05-18T03:47:59.326Z,121.94
2023-05-18T03:48:59.311Z,121.97
2023-05-18T03:49:59.328Z,122.91
2023-05-18T03:50:59.347Z,123.28
2023-05-18T03:51:59.332Z,123.96
2023-05-18T03:52:59.330Z,124.79
2023-05-18T03:53:59.333Z,125.19
2023-05-18T03:54:59.324Z,125.73
2023-05-18T03:55:59.353Z,127.57
2023-05-18T03:56:59.346Z,125.45
2023-05-18T03:57:59.328Z,126.07
2023-05-18T03:58:59.357Z,125.71
2023-05-18T03:59:59.314Z,125.18
2023-05-18T04:00:59.316Z,127.27
2023-05-18T04:01:59.339Z,126.74
2023-05-18T04:02:59.419Z,126.15
2023-05-18T04:03:59.427Z,127.34
2023-05-18T04:04:59.328Z,127.06
2023-05-18T04:05:59.316Z,126.89
2023-05-18T04:06:59.307Z,126.62
2023-05-18T04:07:59.306Z,125.47
2023-05-18T04:08:59.318Z,124.88
2023-05-18T04:09:59.328Z,123.54
2023-05-18T04:10:59.309Z,123.26
2023-05-18T04:11:59.325Z,123.51
2023-05-18T04:12:59.314Z,122.49
2023-05-18T04:13:59.322Z,122.42
2023-05-18T04:14:59.334Z,122.06
2023-05-18T04:15:59.340Z,122.58
2023-05-18T04:16:59.291Z,121.86
2023-05-18T04:17:59.345Z,121.27
2023-05-18T04:18:59.347Z,121.00
2023-05-18T04:19:59.299Z,119.84
2023-05-18T04:20:59.323Z,120.84
2023-05-18T04:21:59.283Z,120.45
2023-05-18T04:22:59.272Z,118.67
2023-05-18T04:23:59.308Z,119.04
2023-05-18T04:24:59.793Z,118.54
2023-05-18T04:25:59.286Z,118.84
2023-05-18T04:26:59.266Z,118.40
2023-05-18T04:27:59.258Z,118.62
2023-05-18T04:28:59.249Z,117.58
2023-05-18T04:29:59.248Z,116.88
2023-05-18T04:30:59.262Z,117.15
2023-05-18T04:31:59.284Z,116.68
2023-05-18T04:32:59.280Z,117.56
2023-05-18T04:33:59.275Z,116.63
2023-05-18T04:34:59.224Z,117.17
2023-05-18T04:35:59.252Z,116.09
2023-05-18T04:36:59.225Z,116.69
2023-05-18T04:37:59.227Z,116.49
2023-05-18T04:38:59.240Z,114.60
2023-05-18T04:39:59.260Z,114.63
2023-05-18T04:40:59.214Z,114.10
2023-05-18T04:41:59.246Z,113.17
2023-05-18T04:42:59.226Z,113.47
2023-05-18T04:43:59.234Z,114.24
2023-05-18T04:44:59.198Z,115.90
2023-05-18T04:45:59.276Z,113.76
2023-05-18T04:46:59.233Z,115.25
2023-05-18T04:47:59.265Z,114.76
2023-05-18T04:48:59.198Z,115.86
2023-05-18T04:49:59.227Z,119.34
2023-05-18T04:50:59.190Z,119.72
2023-05-18T04:51:59.219Z,119.19
2023-05-18T04:52:59.212Z,119.63
2023-05-18T04:53:59.198Z,119.94
2023-05-18T04:54:59.233Z,118.88
2023-05-18T04:55:59.196Z,116.97
2023-05-18T04:56:59.209Z,117.30
2023-05-18T04:57:59.201Z,117.19
2023-05-18T04:58:59.216Z,115.84
2023-05-18T04:59:59.195Z,113.07
2023-05-18T05:01:06.360Z,115.10
2023-05-18T05:01:59.198Z,115.47
2023-05-18T05:02:59.310Z,116.26
2023-05-18T05:03:59.956Z,117.07
2023-05-18T05:04:59.159Z,117.44
2023-05-18T05:05:59.155Z,119.67
2023-05-18T05:06:59.154Z,119.45
2023-05-18T05:07:59.166Z,119.60
2023-05-18T05:08:59.161Z,118.78
2023-05-18T05:09:59.127Z,117.25
2023-05-18T05:10:59.149Z,116.29
2023-05-18T05:11:59.109Z,117.10
2023-05-18T05:12:59.083Z,120.00
2023-05-18T05:13:59.095Z,120.05
2023-05-18T05:14:59.108Z,119.15
2023-05-18T05:15:59.117Z,120.35
2023-05-18T05:16:59.192Z,119.34
2023-05-18T05:17:59.087Z,119.52
2023-05-18T05:18:59.092Z,115.00
2023-05-18T05:19:59.071Z,118.30
2023-05-18T05:20:59.079Z,114.68
2023-05-18T05:21:59.022Z,115.67
2023-05-18T05:22:59.072Z,117.49
2023-05-18T05:23:59.037Z,120.77
2023-05-18T05:24:59.034Z,119.48
2023-05-18T05:25:59.025Z,115.75
2023-05-18T05:26:59.019Z,111.07
2023-05-18T05:27:58.985Z,109.25
2023-05-18T05:28:59.113Z,113.61
2023-05-18T05:29:58.999Z,115.54
2023-05-18T05:30:58.977Z,116.91
2023-05-18T05:31:59.007Z,115.71
2023-05-18T05:32:58.983Z,111.31
2023-05-18T05:33:58.934Z,109.63
2023-05-18T05:34:58.944Z,116.39
2023-05-18T05:35:58.952Z,118.70
2023-05-18T05:36:58.934Z,122.96
2023-05-18T05:37:58.952Z,122.22
2023-05-18T05:38:58.932Z,121.85
2023-05-18T05:39:58.918Z,120.22
2023-05-18T05:40:58.902Z,119.61
2023-05-18T05:41:58.911Z,118.97
2023-05-18T05:42:58.900Z,116.40
2023-05-18T05:43:58.876Z,116.00
2023-05-18T05:44:58.903Z,120.08
2023-05-18T05:46:05.856Z,122.25
2023-05-18T05:46:58.921Z,122.55
2023-05-18T05:47:58.928Z,122.97
2023-05-18T05:48:58.850Z,112.43
2023-05-18T05:49:58.876Z,113.80
2023-05-18T05:50:58.874Z,108.72
2023-05-18T05:51:58.821Z,106.98
2023-05-18T05:52:58.820Z,101.61
2023-05-18T05:53:58.833Z,101.35
2023-05-18T05:54:58.811Z,96.20
2023-05-18T05:55:58.830Z,99.63
2023-05-18T05:56:58.812Z,101.23
2023-05-18T05:57:58.790Z,104.40
2023-05-18T05:58:58.784Z,102.82
2023-05-18T05:59:58.808Z,103.42
2023-05-18T06:00:58.811Z,108.49
2023-05-18T06:01:58.838Z,109.80
2023-05-18T06:02:58.904Z,109.94
2023-05-18T06:03:58.794Z,105.51
2023-05-18T06:04:58.757Z,107.87
2023-05-18T06:05:58.794Z,104.70
2023-05-18T06:06:58.752Z,106.73
2023-05-18T06:07:58.723Z,105.64
2023-05-18T06:08:58.704Z,95.50
2023-05-18T06:09:58.732Z,90.95
2023-05-18T06:10:58.704Z,96.36
2023-05-18T06:11:58.706Z,95.44
2023-05-18T06:12:58.726Z,99.23
2023-05-18T06:13:58.701Z,83.83
2023-05-18T06:14:58.671Z,85.27
2023-05-18T06:15:58.709Z,71.43
2023-05-18T06:16:58.760Z,74.78
2023-05-18T06:17:58.695Z,67.51
2023-05-18T06:18:58.740Z,73.10
2023-05-18T06:19:58.670Z,66.80
2023-05-18T06:20:58.675Z,70.90
2023-05-18T06:21:58.616Z,68.98
2023-05-18T06:22:58.649Z,58.90
2023-05-18T06:23:58.622Z,64.54
2023-05-18T06:24:58.618Z,66.13
2023-05-18T06:25:58.613Z,64.75
2023-05-18T06:26:58.612Z,67.09
2023-05-18T06:27:58.625Z,72.45
2023-05-18T06:28:58.595Z,76.55
2023-05-18T06:29:58.614Z,78.07
2023-05-18T06:30:58.565Z,81.68
2023-05-18T06:31:58.630Z,81.10
2023-05-18T06:32:58.598Z,83.61
2023-05-18T06:33:58.580Z,82.85
2023-05-18T06:34:58.559Z,70.74
2023-05-18T06:35:58.536Z,75.73
2023-05-18T06:36:58.534Z,74.49
2023-05-18T06:37:58.524Z,78.17
2023-05-18T06:38:58.514Z,80.90
2023-05-18T06:39:58.541Z,78.47
2023-05-18T06:40:58.513Z,77.44
2023-05-18T06:41:58.506Z,76.29
2023-05-18T06:42:58.517Z,74.36
2023-05-18T06:43:58.496Z,74.47
2023-05-18T06:44:58.474Z,71.83
2023-05-18T06:45:58.505Z,71.25
2023-05-18T06:46:58.477Z,70.20
2023-05-18T06:47:58.486Z,66.71
2023-05-18T06:48:58.477Z,62.10
2023-05-18T06:49:58.465Z,65.76
2023-05-18T06:50:58.453Z,65.06
2023-05-18T06:51:58.443Z,70.19
2023-05-18T06:52:58.439Z,73.00
2023-05-18T06:53:58.425Z,75.50
2023-05-18T06:54:58.413Z,79.47
2023-05-18T06:55:58.402Z,82.28
2023-05-18T06:56:58.434Z,83.67
2023-05-18T06:57:58.398Z,79.98
2023-05-18T06:59:00.339Z,78.57
2023-05-18T06:59:58.380Z,69.52
2023-05-18T07:00:58.375Z,73.85
2023-05-18T07:01:58.510Z,73.93
2023-05-18T07:02:58.411Z,74.35
2023-05-18T07:03:58.450Z,64.32
2023-05-18T07:04:58.355Z,42.92
2023-05-18T07:05:58.348Z,48.23
2023-05-18T07:06:58.367Z,48.32
2023-05-18T07:07:58.373Z,50.06
2023-05-18T07:08:58.351Z,54.70
2023-05-18T07:09:58.337Z,58.17
2023-05-18T07:10:58.309Z,63.85
2023-05-18T07:11:58.312Z,66.03
2023-05-18T07:12:58.311Z,68.35
2023-05-18T07:13:58.285Z,69.40
2023-05-18T07:14:58.274Z,70.89
2023-05-18T07:15:58.354Z,69.92
2023-05-18T07:16:58.324Z,72.52
2023-05-18T07:17:58.359Z,74.09
2023-05-18T07:18:58.403Z,77.01
2023-05-18T07:19:58.315Z,77.87
2023-05-18T07:20:58.334Z,77.61
2023-05-18T07:21:58.385Z,72.94
2023-05-18T07:22:58.341Z,69.80
2023-05-18T07:23:58.342Z,69.14
2023-05-18T07:24:58.348Z,63.33
2023-05-18T07:25:58.341Z,59.23
2023-05-18T07:27:00.675Z,58.71
2023-05-18T07:27:58.513Z,52.96
2023-05-18T07:28:58.497Z,53.98
2023-05-18T07:29:58.474Z,56.47
2023-05-18T07:30:58.506Z,50.54
2023-05-18T07:31:58.621Z,50.54
2023-05-18T07:32:58.516Z,46.40
2023-05-18T07:33:58.492Z,43.83
2023-05-18T07:34:58.491Z,43.18
2023-05-18T07:35:58.486Z,40.52
2023-05-18T07:36:58.493Z,40.73
2023-05-18T07:37:58.505Z,45.23
2023-05-18T07:38:58.491Z,51.52
2023-05-18T07:39:58.518Z,57.57
2023-05-18T07:40:58.515Z,59.66
2023-05-18T07:41:58.510Z,58.91
2023-05-18T07:42:58.515Z,60.13
2023-05-18T07:43:58.527Z,62.18
2023-05-18T07:44:58.503Z,63.38
2023-05-18T07:45:58.492Z,65.99
2023-05-18T07:46:58.564Z,67.29
2023-05-18T07:47:58.569Z,68.16
2023-05-18T07:48:58.492Z,72.45
2023-05-18T07:49:58.505Z,74.37
2023-05-18T07:50:58.530Z,75.57
2023-05-18T07:51:58.527Z,77.02
2023-05-18T07:52:58.484Z,81.49
2023-05-18T07:53:58.505Z,76.28
2023-05-18T07:54:58.519Z,58.87
2023-05-18T07:55:58.509Z,59.99
2023-05-18T07:57:00.422Z,54.49
2023-05-18T07:57:58.521Z,55.04
2023-05-18T07:58:59.425Z,55.89
2023-05-18T07:59:58.530Z,58.19
2023-05-18T08:00:58.505Z,54.26
2023-05-18T08:01:58.576Z,59.86
2023-05-18T08:02:58.643Z,57.61
2023-05-18T08:03:58.608Z,59.88
2023-05-18T08:04:58.524Z,61.93
2023-05-18T08:05:58.546Z,55.58
2023-05-18T08:06:58.587Z,49.91
2023-05-18T08:07:58.489Z,52.31
2023-05-18T08:08:58.528Z,52.50
2023-05-18T08:09:58.513Z,47.96
2023-05-18T08:10:58.531Z,49.09
2023-05-18T08:11:58.580Z,52.09
2023-05-18T08:12:58.550Z,54.48
2023-05-18T08:13:58.531Z,44.57
2023-05-18T08:14:58.542Z,34.31
2023-05-18T08:16:10.457Z,34.23
2023-05-18T08:16:59.606Z,34.35
2023-05-18T08:17:58.623Z,34.55
2023-05-18T08:18:58.541Z,36.07
2023-05-18T08:19:58.488Z,39.19
2023-05-18T08:20:58.506Z,37.14
2023-05-18T08:21:58.486Z,31.60
2023-05-18T08:22:58.506Z,25.00
2023-05-18T08:23:58.467Z,28.85
2023-05-18T08:24:58.478Z,25.86
2023-05-18T08:25:58.449Z,29.31
2023-05-18T08:26:58.458Z,27.89
2023-05-18T08:27:58.472Z,27.86
2023-05-18T08:28:58.464Z,29.83
2023-05-18T08:29:58.440Z,29.35
2023-05-18T08:30:58.430Z,35.29
2023-05-18T08:31:58.425Z,36.74
2023-05-18T08:32:58.568Z,28.94
2023-05-18T08:33:58.442Z,20.36
2023-05-18T08:34:58.379Z,23.03
2023-05-18T08:35:58.507Z,25.17
2023-05-18T08:36:58.369Z,28.24
2023-05-18T08:37:58.380Z,33.28
2023-05-18T08:38:58.386Z,37.52
2023-05-18T08:39:58.346Z,43.51
2023-05-18T08:40:58.375Z,51.51
2023-05-18T08:41:58.374Z,54.89
2023-05-18T08:42:58.316Z,59.84
2023-05-18T08:43:58.325Z,66.87
2023-05-18T08:44:58.332Z,63.05
2023-05-18T08:45:58.348Z,59.13
2023-05-18T08:46:58.314Z,49.93
2023-05-18T08:47:58.377Z,55.24
2023-05-18T08:48:58.377Z,56.07
2023-05-18T08:49:58.289Z,56.77
2023-05-18T08:50:58.422Z,54.61
2023-05-18T08:51:58.344Z,59.19
2023-05-18T08:52:58.323Z,57.57
2023-05-18T08:53:58.332Z,63.95
2023-05-18T08:54:58.370Z,66.01
2023-05-18T08:55:58.324Z,66.38
2023-05-18T08:56:58.326Z,63.11
2023-05-18T08:57:58.355Z,62.19
2023-05-18T08:58:58.327Z,61.14
2023-05-18T08:59:58.300Z,61.89
2023-05-18T09:00:58.304Z,61.44
2023-05-18T09:01:58.484Z,58.08
2023-05-18T09:02:58.357Z,62.00
2023-05-18T09:03:58.339Z,59.91
2023-05-18T09:04:58.383Z,60.48
2023-05-18T09:05:58.330Z,60.35
2023-05-18T09:06:58.306Z,60.19
2023-05-18T09:07:58.292Z,57.09
2023-05-18T09:08:58.419Z,42.67
2023-05-18T09:09:58.303Z,41.92
2023-05-18T09:10:58.296Z,39.43
2023-05-18T09:11:58.282Z,43.16
2023-05-18T09:12:58.276Z,34.77
2023-05-18T09:13:58.307Z,41.52
2023-05-18T09:14:58.259Z,47.26
2023-05-18T09:15:58.332Z,47.46
2023-05-18T09:16:58.301Z,39.61
2023-05-18T09:17:58.336Z,39.59
2023-05-18T09:18:58.311Z,45.31
2023-05-18T09:19:58.306Z,48.08
2023-05-18T09:20:58.321Z,44.94
2023-05-18T09:21:58.280Z,51.81
2023-05-18T09:22:58.281Z,48.41
2023-05-18T09:23:58.303Z,48.62
2023-05-18T09:24:58.265Z,41.95
2023-05-18T09:25:58.280Z,43.89
2023-05-18T09:26:58.290Z,46.86
2023-05-18T09:27:58.292Z,49.64
2023-05-18T09:28:58.302Z,51.45
2023-05-18T09:29:58.289Z,48.70
2023-05-18T09:30:58.278Z,56.49
2023-05-18T09:31:58.334Z,53.84
2023-05-18T09:32:58.362Z,50.91
2023-05-18T09:33:58.281Z,52.50
2023-05-18T09:34:58.270Z,59.05
2023-05-18T09:35:58.277Z,57.66
2023-05-18T09:36:58.254Z,48.55
2023-05-18T09:37:58.277Z,47.54
2023-05-18T09:38:58.244Z,54.85
2023-05-18T09:39:58.246Z,58.33
2023-05-18T09:40:58.237Z,62.83
2023-05-18T09:41:58.270Z,62.71
2023-05-18T09:42:58.251Z,64.81
2023-05-18T09:43:58.217Z,67.95
2023-05-18T09:44:58.233Z,67.40
2023-05-18T09:45:58.248Z,65.05
2023-05-18T09:46:58.310Z,60.86
2023-05-18T09:47:58.267Z,59.39
2023-05-18T09:48:58.211Z,61.49
2023-05-18T09:49:58.202Z,59.74
2023-05-18T09:50:58.201Z,58.16
2023-05-18T09:51:58.200Z,54.97
2023-05-18T09:52:58.219Z,56.49
2023-05-18T09:53:58.267Z,48.40
2023-05-18T09:54:58.195Z,51.63
2023-05-18T09:55:58.205Z,57.52
2023-05-18T09:57:09.610Z,55.85
2023-05-18T09:57:59.201Z,55.59
2023-05-18T09:58:58.222Z,55.90
2023-05-18T09:59:58.167Z,56.68
2023-05-18T10:00:58.211Z,54.60
2023-05-18T10:01:58.189Z,54.14
2023-05-18T10:02:58.170Z,56.12
2023-05-18T10:03:58.177Z,55.32
2023-05-18T10:04:58.169Z,52.02
2023-05-18T10:05:58.142Z,51.50
2023-05-18T10:06:58.146Z,57.95
2023-05-18T10:07:58.116Z,46.83
2023-05-18T10:08:58.123Z,34.87
2023-05-18T10:09:58.137Z,27.73
2023-05-18T10:10:58.132Z,38.87
2023-05-18T10:11:58.130Z,40.69
2023-05-18T10:12:58.127Z,41.12
2023-05-18T10:13:58.086Z,45.86
2023-05-18T10:14:58.075Z,50.22
2023-05-18T10:15:58.065Z,57.77
2023-05-18T10:17:13.817Z,66.42
2023-05-18T10:17:59.095Z,66.64
2023-05-18T10:18:58.084Z,65.96
2023-05-18T10:19:58.064Z,66.27
2023-05-18T10:20:59.996Z,63.91
2023-05-18T10:21:58.054Z,64.27
2023-05-18T10:22:58.008Z,60.34
2023-05-18T10:23:58.011Z,66.54
2023-05-18T10:24:58.011Z,70.81
2023-05-18T10:25:58.019Z,59.41
2023-05-18T10:26:58.004Z,59.61
2023-05-18T10:27:58.020Z,61.79
2023-05-18T10:28:58.002Z,63.55
2023-05-18T10:29:58.056Z,61.34
2023-05-18T10:30:58.156Z,55.25
2023-05-18T10:31:59.566Z,53.19
2023-05-18T10:32:58.243Z,53.38
2023-05-18T10:33:58.160Z,47.00
2023-05-18T10:34:58.172Z,43.03
2023-05-18T10:35:58.197Z,37.35
2023-05-18T10:36:58.100Z,39.89
2023-05-18T10:37:58.110Z,44.77
2023-05-18T10:38:58.101Z,45.65
2023-05-18T10:39:58.107Z,42.89
2023-05-18T10:40:58.101Z,31.66
2023-05-18T10:41:58.066Z,36.44
2023-05-18T10:42:58.094Z,36.56
2023-05-18T10:43:58.080Z,31.77
2023-05-18T10:44:58.083Z,32.39
2023-05-18T10:45:58.145Z,38.61
2023-05-18T10:46:58.134Z,38.66
2023-05-18T10:47:58.076Z,44.82
2023-05-18T10:48:58.091Z,48.25
2023-05-18T10:49:58.065Z,45.78
2023-05-18T10:50:58.089Z,32.76
2023-05-18T10:51:58.036Z,36.19
2023-05-18T10:52:58.026Z,24.88
2023-05-18T10:53:58.020Z,26.38
2023-05-18T10:54:58.007Z,25.98
2023-05-18T10:55:58.015Z,24.70
2023-05-18T10:56:57.972Z,26.03
2023-05-18T10:57:57.958Z,31.13
2023-05-18T10:58:57.950Z,38.53
2023-05-18T10:59:57.955Z,42.43
2023-05-18T11:00:58.030Z,41.38
2023-05-18T11:01:58.027Z,35.79
2023-05-18T11:02:58.041Z,35.30
2023-05-18T11:03:57.961Z,29.79
2023-05-18T11:04:57.974Z,23.74
2023-05-18T11:05:57.971Z,30.76
2023-05-18T11:06:57.895Z,37.49
2023-05-18T11:07:57.930Z,40.81
2023-05-18T11:08:57.903Z,30.48
2023-05-18T11:09:57.887Z,25.00
2023-05-18T11:10:57.915Z,29.02
2023-05-18T11:11:57.938Z,26.61
2023-05-18T11:12:57.984Z,25.24
2023-05-18T11:13:58.020Z,26.44
2023-05-18T11:14:58.072Z,28.23
2023-05-18T11:15:58.194Z,25.00
2023-05-18T11:16:58.182Z,25.63
2023-05-18T11:17:58.215Z,27.74
2023-05-18T11:18:58.275Z,34.51
2023-05-18T11:19:58.267Z,41.80
2023-05-18T11:20:58.335Z,28.42
2023-05-18T11:21:58.351Z,24.19
2023-05-18T11:22:58.401Z,26.99
2023-05-18T11:23:58.442Z,24.80
2023-05-18T11:24:58.462Z,25.00
2023-05-18T11:25:58.456Z,23.09
2023-05-18T11:26:58.460Z,25.44
2023-05-18T11:27:58.459Z,28.18
2023-05-18T11:28:58.461Z,25.31
2023-05-18T11:30:14.227Z,26.90
2023-05-18T11:30:59.485Z,22.32
2023-05-18T11:31:58.444Z,21.06
2023-05-18T11:32:58.562Z,23.66
2023-05-18T11:33:58.466Z,17.49
2023-05-18T11:34:58.445Z,19.32
2023-05-18T11:35:58.436Z,26.93
2023-05-18T11:36:58.455Z,36.41
2023-05-18T11:37:58.430Z,35.20
2023-05-18T11:38:58.403Z,34.82
2023-05-18T11:40:00.984Z,41.10
2023-05-18T11:40:58.992Z,41.24
2023-05-18T11:41:58.417Z,35.96
2023-05-18T11:42:58.434Z,31.09
2023-05-18T11:43:58.353Z,34.06
2023-05-18T11:44:58.393Z,38.26
2023-05-18T11:45:59.460Z,37.09
2023-05-18T11:46:58.366Z,34.97
2023-05-18T11:47:58.428Z,32.43
2023-05-18T11:48:58.382Z,32.82
2023-05-18T11:49:58.337Z,25.00
2023-05-18T11:50:58.337Z,24.09
2023-05-18T11:51:58.887Z,25.21
2023-05-18T11:52:58.326Z,25.04
2023-05-18T11:53:58.302Z,29.00
2023-05-18T11:54:58.305Z,29.90
2023-05-18T11:55:58.284Z,30.46
2023-05-18T11:56:58.269Z,32.87
2023-05-18T11:57:58.284Z,36.06
2023-05-18T11:58:58.291Z,39.08
2023-05-18T11:59:58.267Z,47.87
2023-05-18T12:00:58.279Z,48.95
2023-05-18T12:01:58.292Z,50.66
2023-05-18T12:02:58.394Z,44.11
2023-05-18T12:03:58.316Z,44.27
2023-05-18T12:04:58.287Z,35.75
2023-05-18T12:05:58.313Z,32.63
2023-05-18T12:06:58.376Z,27.87
2023-05-18T12:07:58.390Z,29.33
2023-05-18T12:08:58.577Z,27.23
2023-05-18T12:09:58.453Z,28.02
2023-05-18T12:10:58.503Z,29.72
2023-05-18T12:11:58.526Z,28.39
2023-05-18T12:12:58.519Z,25.00
2023-05-18T12:13:58.530Z,24.88
2023-05-18T12:14:58.505Z,26.05
2023-05-18T12:15:59.088Z,29.39
2023-05-18T12:16:58.578Z,25.84
2023-05-18T12:17:58.591Z,31.27
2023-05-18T12:18:58.549Z,33.85
2023-05-18T12:19:58.548Z,37.07
2023-05-18T12:20:58.552Z,42.12
2023-05-18T12:21:59.102Z,45.33
2023-05-18T12:22:58.590Z,39.09
2023-05-18T12:23:58.601Z,30.54
2023-05-18T12:24:59.510Z,28.89
2023-05-18T12:25:58.585Z,25.00
2023-05-18T12:26:58.579Z,25.30
2023-05-18T12:27:58.581Z,27.71
2023-05-18T12:28:58.610Z,27.94
2023-05-18T12:29:58.571Z,32.29
2023-05-18T12:30:58.634Z,33.01
2023-05-18T12:31:58.581Z,36.33
2023-05-18T12:32:58.636Z,46.89
2023-05-18T12:33:59.295Z,47.07
2023-05-18T12:34:58.618Z,48.14
2023-05-18T12:35:58.654Z,45.90
2023-05-18T12:36:59.053Z,45.18
2023-05-18T12:37:58.700Z,34.97
2023-05-18T12:38:58.743Z,25.00
2023-05-18T12:39:58.764Z,28.74
2023-05-18T12:40:58.801Z,27.81
2023-05-18T12:41:58.812Z,25.96
2023-05-18T12:42:58.805Z,28.38
2023-05-18T12:43:58.808Z,28.24
2023-05-18T12:44:58.827Z,23.03
2023-05-18T12:45:58.869Z,25.38
2023-05-18T12:46:58.838Z,28.57